This is the latest recevied weather packets stored in our database for station/object AC1IX. If no packets are shown the sender has not sent any weather packets the latest 10 day(s).
| Time | Temp. | Humidity | Pressure | Rain* | Wind** | Luminosity | Snow |
|---|---|---|---|---|---|---|---|
| 1777749697 | 11.11° C | 59% | 1011.5 hPa | 0 mm | - | 193 W/m² | - |
| 1777749394 | 11.67° C | 57% | 1011.8 hPa | 0 mm | - | 311 W/m² | - |
| 1777749091 | 11.67° C | 59% | 1011.9 hPa | 0 mm | - | 223 W/m² | - |
| 1777748788 | 12.78° C | 57% | 1011.9 hPa | 0 mm | - | 281 W/m² | - |
| 1777748486 | 11.11° C | 68% | 1011.7 hPa | 0 mm | - | 740 W/m² | - |
| 1777748180 | 11.11° C | 61% | 1011.8 hPa | 0 mm | - | 180 W/m² | - |
| 1777747878 | 11.67° C | 62% | 1011.7 hPa | 0 mm | - | 121 W/m² | - |
| 1777747574 | 11.11° C | 65% | 1011.7 hPa | 0 mm | - | 524 W/m² | - |
| 1777747269 | 11.11° C | 65% | 1011.9 hPa | 0 mm | - | 188 W/m² | - |
| 1777746966 | 10.56° C | 68% | 1012.1 hPa | 0 mm | - | 740 W/m² | - |
| 1777746662 | 10.56° C | 71% | 1011.9 hPa | 0 mm | - | 120 W/m² | - |
| 1777746357 | 11.11° C | 65% | 1012.1 hPa | 0 mm | - | 131 W/m² | - |
| 1777746053 | 10.56° C | 65% | 1012 hPa | 0 mm | - | 691 W/m² | - |
| 1777745751 | 10° C | 72% | 1012.5 hPa | 0 mm | - | 385 W/m² | - |
| 1777745450 | 10.56° C | 68% | 1012.4 hPa | 0 mm | - | 213 W/m² | - |
| 1777745147 | 10.56° C | 66% | 1012.2 hPa | 0 mm | - | 331 W/m² | - |
| 1777744843 | 10° C | 71% | 1012.5 hPa | 0 mm | - | 812 W/m² | - |
| 1777744537 | 9.44° C | 73% | 1012.5 hPa | 0 mm | - | 303 W/m² | - |
| 1777744234 | 8.89° C | 74% | 1012.5 hPa | 0 mm | - | 333 W/m² | - |
| 1777743931 | 8.89° C | 78% | 1012.3 hPa | 0 mm | - | 241 W/m² | - |
| 1777743627 | 8.33° C | 83% | 1012.7 hPa | 0 mm | - | 205 W/m² | - |
| 1777743325 | 7.78° C | 83% | 1012.4 hPa | 0 mm | - | 180 W/m² | - |
| 1777743023 | 7.78° C | 85% | 1012.3 hPa | 0 mm | - | 125 W/m² | - |
| 1777742720 | 7.78° C | 86% | 1012.4 hPa | 0 mm | - | 88 W/m² | - |
| 1777742416 | 8.33° C | 86% | 1012.5 hPa | 0 mm | - | 131 W/m² | - |
* Rain latest hour (hover to see other rain measurements)
** Current wind speed in m/s (hover to see current wind gust speed)